Terminal Aerodrome Forecast
Issued by NWS Corpus Christi, TX

Home | Current Version | Previous Version | Text Only | Print | Product List | Glossary On
Versions: 1 2 3 4 5 6 7 8 9 10 11 12 13 14 15 16 17 18 19 20
000
FTUS44 KCRP 190520
TAFVCT
TAF
KVCT 190520Z 1906/2006 15015KT P6SM OVC008
      TEMPO 1906/1909 SCT008 OVC013
     FM191000 15007KT P6SM OVC011 WS020/18040KT
      TEMPO 1910/1914 4SM BR OVC007
     FM191600 17015G23KT P6SM SCT015 BKN025
     FM191900 16021G28KT P6SM BKN035
     FM200100 14014KT P6SM OVC018
     FM200400 15014KT P6SM OVC009=

USA.gov is the U.S. government's official web portal to all federal, state and local government web resources and services.